createdAt,value
2023-05-14T00:01:23.888Z,18.50
2023-05-14T00:03:50.911Z,18.50
2023-05-14T00:06:17.843Z,18.50
2023-05-14T00:08:44.666Z,18.50
2023-05-14T00:11:11.493Z,18.40
2023-05-14T00:13:38.421Z,18.30
2023-05-14T00:16:05.654Z,18.30
2023-05-14T00:18:32.740Z,18.30
2023-05-14T00:20:59.587Z,18.30
2023-05-14T00:23:26.386Z,18.30
2023-05-14T00:25:53.215Z,18.20
2023-05-14T00:28:20.698Z,18.20
2023-05-14T00:30:48.538Z,18.20
2023-05-14T00:33:15.998Z,18.10
2023-05-14T00:35:43.471Z,18.10
2023-05-14T00:38:16.792Z,18.10
2023-05-14T00:40:45.899Z,18.10
2023-05-14T00:43:12.770Z,18.10
2023-05-14T00:45:39.782Z,18.10
2023-05-14T00:48:07.169Z,18.10
2023-05-14T00:50:34.614Z,18.10
2023-05-14T00:53:01.683Z,18.10
2023-05-14T00:55:30.804Z,18.00
2023-05-14T00:57:58.958Z,18.00
2023-05-14T01:00:26.152Z,18.00
2023-05-14T01:02:53.041Z,18.10
2023-05-14T01:05:20.255Z,18.00
2023-05-14T01:08:07.700Z,18.00
2023-05-14T01:10:45.866Z,17.90
2023-05-14T01:13:27.883Z,17.90
2023-05-14T01:15:58.128Z,18.00
2023-05-14T01:18:26.101Z,17.90
2023-05-14T01:20:54.522Z,17.90
2023-05-14T01:23:21.296Z,17.90
2023-05-14T01:25:48.092Z,17.90
2023-05-14T01:28:20.217Z,17.90
2023-05-14T01:31:16.269Z,17.80
2023-05-14T01:33:44.758Z,17.70
2023-05-14T01:36:11.653Z,17.70
2023-05-14T01:38:39.714Z,17.70
2023-05-14T01:41:06.790Z,17.60
2023-05-14T01:43:34.513Z,17.60
2023-05-14T01:46:01.465Z,17.60
2023-05-14T01:48:29.890Z,17.60
2023-05-14T01:50:57.135Z,17.50
2023-05-14T01:53:23.964Z,17.50
2023-05-14T01:55:50.826Z,17.50
2023-05-14T01:58:17.708Z,17.50
2023-05-14T02:00:44.497Z,17.40
2023-05-14T02:03:11.438Z,17.40
2023-05-14T02:05:38.341Z,17.40
2023-05-14T02:08:05.428Z,17.30
2023-05-14T02:10:32.708Z,17.30
2023-05-14T02:12:59.531Z,17.30
2023-05-14T02:15:26.443Z,17.30
2023-05-14T02:17:53.279Z,17.30
2023-05-14T02:20:20.135Z,17.30
2023-05-14T02:22:46.966Z,17.40
2023-05-14T02:25:13.774Z,17.30
2023-05-14T02:27:40.600Z,17.40
2023-05-14T02:30:08.015Z,17.30
2023-05-14T02:32:34.874Z,17.40
2023-05-14T02:35:01.908Z,17.40
2023-05-14T02:37:28.710Z,17.40
2023-05-14T02:39:55.487Z,17.40
2023-05-14T02:42:22.916Z,17.30
2023-05-14T02:44:49.814Z,17.30
2023-05-14T02:47:16.620Z,17.30
2023-05-14T02:49:43.404Z,17.30
2023-05-14T02:52:10.383Z,17.20
2023-05-14T02:54:37.271Z,17.20
2023-05-14T02:57:04.391Z,17.20
2023-05-14T02:59:31.655Z,17.30
2023-05-14T03:01:59.093Z,17.20
2023-05-14T03:04:26.574Z,17.30
2023-05-14T03:06:53.395Z,17.20
2023-05-14T03:09:20.266Z,17.10
2023-05-14T03:11:47.125Z,17.10
2023-05-14T03:14:14.106Z,17.10
2023-05-14T03:16:42.385Z,17.10
2023-05-14T03:19:09.999Z,17.10
2023-05-14T03:21:37.100Z,16.90
2023-05-14T03:24:04.019Z,17.00
2023-05-14T03:26:30.892Z,17.00
2023-05-14T03:28:57.693Z,17.00
2023-05-14T03:31:24.998Z,17.00
2023-05-14T03:33:52.127Z,16.90
2023-05-14T03:36:18.935Z,17.00
2023-05-14T03:38:47.934Z,16.90
2023-05-14T03:41:15.498Z,16.90
2023-05-14T03:43:42.737Z,16.90
2023-05-14T03:46:09.531Z,16.90
2023-05-14T03:48:36.595Z,16.80
2023-05-14T03:51:04.921Z,16.70
2023-05-14T03:53:31.701Z,16.70
2023-05-14T03:55:58.613Z,16.60
2023-05-14T03:58:25.579Z,16.60
2023-05-14T04:00:53.709Z,16.50
2023-05-14T04:03:20.638Z,16.50
2023-05-14T04:05:47.653Z,16.50
2023-05-14T04:08:14.467Z,16.50
2023-05-14T04:10:43.041Z,16.40
2023-05-14T04:13:09.888Z,16.40
2023-05-14T04:15:39.990Z,16.30
2023-05-14T04:18:07.668Z,16.30
2023-05-14T04:20:34.588Z,16.40
2023-05-14T04:23:01.358Z,16.40
2023-05-14T04:25:28.182Z,16.40
2023-05-14T04:27:54.946Z,16.40
2023-05-14T04:30:22.264Z,16.40
2023-05-14T04:32:49.153Z,16.50
2023-05-14T04:35:16.266Z,16.50
2023-05-14T04:37:43.040Z,16.60
2023-05-14T04:40:11.341Z,16.70
2023-05-14T04:42:38.910Z,16.60
2023-05-14T04:45:06.843Z,16.60
2023-05-14T04:47:33.837Z,16.60
2023-05-14T04:50:00.704Z,16.70
2023-05-14T04:52:27.708Z,16.60
2023-05-14T04:54:54.926Z,16.60
2023-05-14T04:57:21.834Z,16.60
2023-05-14T04:59:48.619Z,16.50
2023-05-14T05:02:15.502Z,16.60
2023-05-14T05:04:42.271Z,16.60
2023-05-14T05:07:09.027Z,16.60
2023-05-14T05:09:35.827Z,16.70
2023-05-14T05:12:02.646Z,16.80
2023-05-14T05:14:29.621Z,16.80
2023-05-14T05:16:56.548Z,16.90
2023-05-14T05:19:35.843Z,17.00
2023-05-14T05:22:06.951Z,17.10
2023-05-14T05:24:33.771Z,17.00
2023-05-14T05:27:00.648Z,17.00
2023-05-14T05:29:27.478Z,17.00
2023-05-14T05:31:54.371Z,17.00
2023-05-14T05:34:21.463Z,17.00
2023-05-14T05:36:48.312Z,17.00
2023-05-14T05:39:15.112Z,17.00
2023-05-14T05:41:43.592Z,17.20
2023-05-14T05:44:10.444Z,17.20
2023-05-14T05:46:37.685Z,17.20
2023-05-14T05:49:04.536Z,17.20
2023-05-14T05:51:31.447Z,17.20
2023-05-14T05:53:58.389Z,17.30
2023-05-14T05:56:25.182Z,17.30
2023-05-14T05:58:52.138Z,17.40
2023-05-14T06:01:18.920Z,17.40
2023-05-14T06:03:48.260Z,17.40
2023-05-14T06:06:15.738Z,17.40
2023-05-14T06:08:42.612Z,17.40
2023-05-14T06:11:09.426Z,17.40
2023-05-14T06:13:36.178Z,17.40
2023-05-14T06:16:03.013Z,17.40
2023-05-14T06:18:29.867Z,17.40
2023-05-14T06:20:57.360Z,17.50
2023-05-14T06:23:24.084Z,17.50
2023-05-14T06:25:51.128Z,17.50
2023-05-14T06:28:17.986Z,17.60
2023-05-14T06:30:44.756Z,17.60
2023-05-14T06:33:13.425Z,17.60
2023-05-14T06:35:40.417Z,17.70
2023-05-14T06:38:07.144Z,17.80
2023-05-14T06:40:33.934Z,17.70
2023-05-14T06:43:00.699Z,17.70
2023-05-14T06:45:27.458Z,17.80
2023-05-14T06:47:55.707Z,17.80
2023-05-14T06:50:22.710Z,18.00
2023-05-14T06:52:49.645Z,18.10
2023-05-14T06:55:16.543Z,18.20
2023-05-14T06:57:44.046Z,18.50
2023-05-14T07:00:11.270Z,18.70
2023-05-14T07:02:38.060Z,19.00
2023-05-14T07:05:05.069Z,19.20
2023-05-14T07:07:31.831Z,19.40
2023-05-14T07:09:58.659Z,19.50
2023-05-14T07:12:25.820Z,19.50
2023-05-14T07:14:52.665Z,19.60
2023-05-14T07:17:19.493Z,19.60
2023-05-14T07:19:47.334Z,19.60
2023-05-14T07:22:14.171Z,19.60
2023-05-14T07:24:41.000Z,19.70
2023-05-14T07:27:08.627Z,19.80
2023-05-14T07:29:35.498Z,19.90
2023-05-14T07:32:02.345Z,19.90
2023-05-14T07:34:29.118Z,20.10
2023-05-14T07:36:56.215Z,20.20
2023-05-14T07:39:22.986Z,20.40
2023-05-14T07:41:50.172Z,20.40
2023-05-14T07:44:17.108Z,20.40
2023-05-14T07:46:43.926Z,20.50
2023-05-14T07:49:10.817Z,20.60
2023-05-14T07:51:37.833Z,20.70
2023-05-14T07:54:05.096Z,20.70
2023-05-14T07:56:32.161Z,20.60
2023-05-14T07:58:59.237Z,20.70
2023-05-14T08:01:26.363Z,20.80
2023-05-14T08:03:53.219Z,20.90
2023-05-14T08:06:21.801Z,21.00
2023-05-14T08:08:48.851Z,21.00
2023-05-14T08:11:15.807Z,21.10
2023-05-14T08:13:42.687Z,21.20
2023-05-14T08:16:09.752Z,21.40
2023-05-14T08:18:36.644Z,21.50
2023-05-14T08:21:03.801Z,21.60
2023-05-14T08:23:30.816Z,21.60
2023-05-14T08:25:57.710Z,21.70
2023-05-14T08:28:24.526Z,21.70
2023-05-14T08:30:51.566Z,21.80
2023-05-14T08:33:18.590Z,21.90
2023-05-14T08:35:45.452Z,22.00
2023-05-14T08:38:12.354Z,22.20
2023-05-14T08:40:39.347Z,22.30
2023-05-14T08:43:07.572Z,22.50
2023-05-14T08:45:35.410Z,22.60
2023-05-14T08:48:06.737Z,22.50
2023-05-14T08:50:33.876Z,22.50
2023-05-14T08:53:00.672Z,22.50
2023-05-14T08:55:28.448Z,22.60
2023-05-14T08:57:56.154Z,22.70
2023-05-14T09:00:23.495Z,22.90
2023-05-14T09:02:51.519Z,23.00
2023-05-14T09:05:19.462Z,23.00
2023-05-14T09:07:46.718Z,23.00
2023-05-14T09:10:15.447Z,23.00
2023-05-14T09:12:42.373Z,23.00
2023-05-14T09:15:09.625Z,23.10
2023-05-14T09:17:36.594Z,23.20
2023-05-14T09:20:04.563Z,23.20
2023-05-14T09:22:32.335Z,23.30
2023-05-14T09:25:07.462Z,23.40
2023-05-14T09:27:34.717Z,23.50
2023-05-14T09:30:06.375Z,23.70
2023-05-14T09:32:38.044Z,23.90
2023-05-14T09:35:18.904Z,24.10
2023-05-14T09:37:51.184Z,24.40
2023-05-14T09:40:19.624Z,24.60
2023-05-14T09:42:48.202Z,24.80
2023-05-14T09:45:15.619Z,25.00
2023-05-14T09:47:42.536Z,25.20
2023-05-14T09:50:09.713Z,25.30
2023-05-14T09:52:37.300Z,25.40
2023-05-14T09:55:04.481Z,25.50
2023-05-14T09:57:31.396Z,25.70
2023-05-14T09:59:58.229Z,25.90
2023-05-14T10:02:30.184Z,26.00
2023-05-14T10:05:02.470Z,26.20
2023-05-14T10:07:47.632Z,26.40
2023-05-14T10:10:18.603Z,26.50
2023-05-14T10:12:56.183Z,26.70
2023-05-14T10:15:50.051Z,26.90
2023-05-14T10:18:19.700Z,27.20
2023-05-14T10:20:52.957Z,27.30
2023-05-14T10:23:20.086Z,27.20
2023-05-14T10:25:46.958Z,27.20
2023-05-14T10:28:13.898Z,27.30
2023-05-14T10:30:46.926Z,27.50
2023-05-14T10:33:16.536Z,27.60
2023-05-14T10:36:03.910Z,27.70
2023-05-14T10:38:36.534Z,27.70
2023-05-14T10:41:11.666Z,27.70
2023-05-14T10:43:42.318Z,27.80
2023-05-14T10:46:11.292Z,27.90
2023-05-14T10:48:41.562Z,28.00
2023-05-14T10:51:10.208Z,28.20
2023-05-14T10:53:39.510Z,28.30
2023-05-14T10:56:14.218Z,28.40
2023-05-14T10:58:43.792Z,28.50
2023-05-14T11:01:13.192Z,28.40
2023-05-14T11:03:45.276Z,28.40
2023-05-14T11:06:14.916Z,28.50
2023-05-14T11:08:42.610Z,28.50
2023-05-14T11:11:10.747Z,28.50
2023-05-14T11:13:38.008Z,28.50
2023-05-14T11:16:18.954Z,28.50
2023-05-14T11:19:00.802Z,28.70
2023-05-14T11:21:27.908Z,29.10
2023-05-14T11:23:55.660Z,29.20
2023-05-14T11:26:23.954Z,29.20
2023-05-14T11:28:50.947Z,29.30
2023-05-14T11:31:18.087Z,29.30
2023-05-14T11:33:44.905Z,29.40
2023-05-14T11:36:12.497Z,29.50
2023-05-14T11:38:49.439Z,29.60
2023-05-14T11:41:16.212Z,29.60
2023-05-14T11:43:43.199Z,29.70
2023-05-14T11:46:18.059Z,29.60
2023-05-14T11:48:45.581Z,29.60
2023-05-14T11:51:12.684Z,29.50
2023-05-14T11:53:39.639Z,29.20
2023-05-14T11:56:08.269Z,28.90
2023-05-14T11:58:36.605Z,28.60
2023-05-14T12:01:03.473Z,28.50
2023-05-14T12:03:30.978Z,28.30
2023-05-14T12:05:59.819Z,28.10
2023-05-14T12:08:29.106Z,28.10
2023-05-14T12:10:57.767Z,28.30
2023-05-14T12:13:31.846Z,28.60
2023-05-14T12:16:01.974Z,28.90
2023-05-14T12:18:33.553Z,29.10
2023-05-14T12:21:05.098Z,29.40
2023-05-14T12:23:32.875Z,29.70
2023-05-14T12:26:07.528Z,29.70
2023-05-14T12:28:38.007Z,29.60
2023-05-14T12:31:04.978Z,29.50
2023-05-14T12:33:31.770Z,29.30
2023-05-14T12:36:07.405Z,29.20
2023-05-14T12:38:41.585Z,29.00
2023-05-14T12:41:08.344Z,29.00
2023-05-14T12:43:35.090Z,29.10
2023-05-14T12:46:01.904Z,29.10
2023-05-14T12:48:28.708Z,29.00
2023-05-14T12:50:55.566Z,28.80
2023-05-14T12:53:22.430Z,28.60
2023-05-14T12:55:49.689Z,28.60
2023-05-14T12:58:16.488Z,28.50
2023-05-14T13:00:43.336Z,28.50
2023-05-14T13:03:10.272Z,28.40
2023-05-14T13:05:37.658Z,28.30
2023-05-14T13:08:04.468Z,28.20
2023-05-14T13:10:31.304Z,28.10
2023-05-14T13:12:58.224Z,27.90
2023-05-14T13:15:25.390Z,27.80
2023-05-14T13:17:52.751Z,27.80
2023-05-14T13:20:19.877Z,27.60
2023-05-14T13:22:46.652Z,27.50
2023-05-14T13:25:13.472Z,27.50
2023-05-14T13:27:40.254Z,27.50
2023-05-14T13:30:07.659Z,27.40
2023-05-14T13:32:34.620Z,27.40
2023-05-14T13:35:01.470Z,27.30
2023-05-14T13:37:28.572Z,27.30
2023-05-14T13:39:55.710Z,27.30
2023-05-14T13:42:23.580Z,27.10
2023-05-14T13:44:50.744Z,26.90
2023-05-14T13:47:17.885Z,26.90
2023-05-14T13:49:44.896Z,26.80
2023-05-14T13:52:11.658Z,26.80
2023-05-14T13:54:38.540Z,26.70
2023-05-14T13:57:05.613Z,26.60
2023-05-14T13:59:32.401Z,26.60
2023-05-14T14:01:59.261Z,26.50
2023-05-14T14:04:28.977Z,26.40
2023-05-14T14:06:56.606Z,26.20
2023-05-14T14:09:23.925Z,26.20
2023-05-14T14:11:50.953Z,26.10
2023-05-14T14:14:18.340Z,26.20
2023-05-14T14:16:45.242Z,26.10
2023-05-14T14:19:12.390Z,26.10
2023-05-14T14:21:42.648Z,26.00
2023-05-14T14:24:09.530Z,26.00
2023-05-14T14:26:36.518Z,26.00
2023-05-14T14:29:03.371Z,26.00
2023-05-14T14:31:30.290Z,26.00
2023-05-14T14:33:57.173Z,26.00
2023-05-14T14:36:23.962Z,26.00
2023-05-14T14:38:51.179Z,25.90
2023-05-14T14:41:18.141Z,25.90
2023-05-14T14:43:44.939Z,25.90
2023-05-14T14:46:11.776Z,25.80
2023-05-14T14:48:38.650Z,25.80
2023-05-14T14:51:07.576Z,25.70
2023-05-14T14:53:36.216Z,25.60
2023-05-14T14:56:04.443Z,25.60
2023-05-14T14:58:31.430Z,25.70
2023-05-14T15:00:58.928Z,25.60
2023-05-14T15:03:26.701Z,25.50
2023-05-14T15:05:53.990Z,25.50
2023-05-14T15:08:30.110Z,25.50
2023-05-14T15:10:57.017Z,25.40
2023-05-14T15:13:24.730Z,25.30
2023-05-14T15:15:52.512Z,25.40
2023-05-14T15:18:19.496Z,25.40
2023-05-14T15:20:46.413Z,25.40
2023-05-14T15:23:13.250Z,25.40
2023-05-14T15:25:40.131Z,25.40
2023-05-14T15:28:07.661Z,25.30
2023-05-14T15:30:34.715Z,25.40
2023-05-14T15:33:01.851Z,25.30
2023-05-14T15:35:28.762Z,25.30
2023-05-14T15:37:57.284Z,25.30
2023-05-14T15:40:24.282Z,25.30
2023-05-14T15:42:51.287Z,25.20
2023-05-14T15:45:18.100Z,25.20
2023-05-14T15:47:48.098Z,25.20
2023-05-14T15:50:14.912Z,25.10
2023-05-14T15:52:41.851Z,25.10
2023-05-14T15:55:09.527Z,25.10
2023-05-14T15:57:36.375Z,25.00
2023-05-14T16:00:10.439Z,24.90
2023-05-14T16:02:39.215Z,24.90
2023-05-14T16:05:07.686Z,24.80
2023-05-14T16:07:34.570Z,24.70
2023-05-14T16:10:01.372Z,24.70
2023-05-14T16:12:28.349Z,24.70
2023-05-14T16:14:56.963Z,24.60
2023-05-14T16:17:24.023Z,24.60
2023-05-14T16:19:51.159Z,24.60
2023-05-14T16:22:19.033Z,24.60
2023-05-14T16:24:45.985Z,24.60
2023-05-14T16:27:12.871Z,24.70
2023-05-14T16:29:39.733Z,24.60
2023-05-14T16:32:06.839Z,24.50
2023-05-14T16:34:33.734Z,24.50
2023-05-14T16:37:00.853Z,24.40
2023-05-14T16:39:27.822Z,24.30
2023-05-14T16:41:54.585Z,24.20
2023-05-14T16:44:21.447Z,24.10
2023-05-14T16:46:48.613Z,24.10
2023-05-14T16:49:15.536Z,24.00
2023-05-14T16:51:43.892Z,24.00
2023-05-14T16:54:10.993Z,23.90
2023-05-14T16:56:37.907Z,23.90
2023-05-14T16:59:04.750Z,23.90
2023-05-14T17:01:32.218Z,23.90
2023-05-14T17:03:59.222Z,23.80
2023-05-14T17:06:26.152Z,23.70
2023-05-14T17:08:52.914Z,23.60
2023-05-14T17:11:21.039Z,23.50
2023-05-14T17:13:47.815Z,23.40
2023-05-14T17:16:14.749Z,23.40
2023-05-14T17:18:41.711Z,23.40
2023-05-14T17:21:08.801Z,23.40
2023-05-14T17:23:35.565Z,23.50
2023-05-14T17:26:02.529Z,23.40
2023-05-14T17:28:30.036Z,23.30
2023-05-14T17:30:57.170Z,23.20
2023-05-14T17:33:24.276Z,23.10
2023-05-14T17:35:51.944Z,22.90
2023-05-14T17:38:18.770Z,22.90
2023-05-14T17:40:45.605Z,22.80
2023-05-14T17:43:12.568Z,22.80
2023-05-14T17:45:52.552Z,22.80
2023-05-14T17:48:21.183Z,22.70
2023-05-14T17:50:48.275Z,22.60
2023-05-14T17:53:15.092Z,22.50
2023-05-14T17:55:43.683Z,22.30
2023-05-14T17:58:15.485Z,22.20
2023-05-14T18:00:43.469Z,22.10
2023-05-14T18:03:11.323Z,22.00
2023-05-14T18:05:38.435Z,21.90
2023-05-14T18:08:05.508Z,21.80
2023-05-14T18:10:32.367Z,21.80
2023-05-14T18:12:59.259Z,21.70
2023-05-14T18:15:27.344Z,21.70
2023-05-14T18:17:54.468Z,21.60
2023-05-14T18:20:21.497Z,21.50
2023-05-14T18:22:49.307Z,21.40
2023-05-14T18:25:16.516Z,21.30
2023-05-14T18:27:45.008Z,21.20
2023-05-14T18:30:14.520Z,21.20
2023-05-14T18:32:43.638Z,21.10
2023-05-14T18:35:11.515Z,21.00
2023-05-14T18:37:38.625Z,21.00
2023-05-14T18:40:06.980Z,21.00
2023-05-14T18:42:35.066Z,21.00
2023-05-14T18:45:02.279Z,21.00
2023-05-14T18:47:29.273Z,21.00
2023-05-14T18:49:58.938Z,20.90
2023-05-14T18:52:26.438Z,20.90
2023-05-14T18:54:54.666Z,20.70
2023-05-14T18:57:21.887Z,20.60
2023-05-14T18:59:48.860Z,20.50
2023-05-14T19:02:16.238Z,20.50
2023-05-14T19:04:51.650Z,20.40
2023-05-14T19:07:20.115Z,20.30
2023-05-14T19:09:46.936Z,20.20
2023-05-14T19:12:14.240Z,20.00
2023-05-14T19:14:41.249Z,19.90
2023-05-14T19:17:08.128Z,19.90
2023-05-14T19:19:35.177Z,20.00
2023-05-14T19:22:02.027Z,19.90
2023-05-14T19:24:28.911Z,19.90
2023-05-14T19:26:55.928Z,19.90
2023-05-14T19:29:22.765Z,19.90
2023-05-14T19:31:50.026Z,19.90
2023-05-14T19:34:16.991Z,19.80
2023-05-14T19:36:43.756Z,19.90
2023-05-14T19:39:10.937Z,19.90
2023-05-14T19:41:37.933Z,19.90
2023-05-14T19:44:04.790Z,20.00
2023-05-14T19:46:31.724Z,20.00
2023-05-14T19:48:58.616Z,20.00
2023-05-14T19:51:25.615Z,19.90
2023-05-14T19:53:52.431Z,19.80
2023-05-14T19:56:19.319Z,19.70
2023-05-14T19:58:46.078Z,19.70
2023-05-14T20:01:13.076Z,19.60
2023-05-14T20:03:40.091Z,19.60
2023-05-14T20:06:07.846Z,19.50
2023-05-14T20:08:34.730Z,19.40
2023-05-14T20:11:01.852Z,19.40
2023-05-14T20:13:31.766Z,19.40
2023-05-14T20:15:58.956Z,19.30
2023-05-14T20:18:25.954Z,19.10
2023-05-14T20:20:52.746Z,19.20
2023-05-14T20:23:20.552Z,19.20
2023-05-14T20:25:47.844Z,19.20
2023-05-14T20:28:14.822Z,19.20
2023-05-14T20:30:41.723Z,19.20
2023-05-14T20:33:08.651Z,19.10
2023-05-14T20:35:36.020Z,19.10
2023-05-14T20:38:03.742Z,19.10
2023-05-14T20:40:32.646Z,19.10
2023-05-14T20:42:59.638Z,19.00
2023-05-14T20:45:26.712Z,19.00
2023-05-14T20:47:53.916Z,19.00
2023-05-14T20:50:22.503Z,18.90
2023-05-14T20:52:49.257Z,18.90
2023-05-14T20:55:16.154Z,18.90
2023-05-14T20:57:43.559Z,18.90
2023-05-14T21:00:11.368Z,18.80
2023-05-14T21:02:38.434Z,18.90
2023-05-14T21:05:05.816Z,18.90
2023-05-14T21:07:32.855Z,18.90
2023-05-14T21:09:59.711Z,19.00
2023-05-14T21:12:26.482Z,18.90
2023-05-14T21:14:53.289Z,19.00
2023-05-14T21:17:20.089Z,19.00
2023-05-14T21:19:46.925Z,19.00
2023-05-14T21:22:13.991Z,19.00
2023-05-14T21:24:40.875Z,19.00
2023-05-14T21:27:07.765Z,18.90
2023-05-14T21:29:34.643Z,18.90
2023-05-14T21:32:01.657Z,18.90
2023-05-14T21:34:31.122Z,18.90
2023-05-14T21:36:58.954Z,18.90
2023-05-14T21:39:25.900Z,18.90
2023-05-14T21:41:52.716Z,18.90
2023-05-14T21:44:19.476Z,18.90
2023-05-14T21:46:47.269Z,18.90
2023-05-14T21:49:14.092Z,18.90
2023-05-14T21:51:40.882Z,18.90
2023-05-14T21:54:07.820Z,18.90
2023-05-14T21:56:35.921Z,18.80
2023-05-14T21:59:02.845Z,18.80
2023-05-14T22:01:29.639Z,18.80
2023-05-14T22:03:57.934Z,18.70
2023-05-14T22:06:25.209Z,18.70
2023-05-14T22:08:52.005Z,18.40
2023-05-14T22:11:18.926Z,18.40
2023-05-14T22:13:45.770Z,18.40
2023-05-14T22:16:14.039Z,18.40
2023-05-14T22:18:41.510Z,18.40
2023-05-14T22:21:08.496Z,18.30
2023-05-14T22:23:35.289Z,18.20
2023-05-14T22:26:02.053Z,18.10
2023-05-14T22:28:29.006Z,18.10
2023-05-14T22:30:56.602Z,18.10
2023-05-14T22:33:23.476Z,18.10
2023-05-14T22:35:50.604Z,18.10
2023-05-14T22:38:17.426Z,18.10
2023-05-14T22:40:44.256Z,18.00
2023-05-14T22:43:11.162Z,18.10
2023-05-14T22:45:37.973Z,18.00
2023-05-14T22:48:04.952Z,17.90
2023-05-14T22:50:31.948Z,17.90
2023-05-14T22:52:58.672Z,17.80
2023-05-14T22:55:25.617Z,17.70
2023-05-14T22:57:52.578Z,17.80
2023-05-14T23:00:19.636Z,17.70
2023-05-14T23:02:46.408Z,17.80
2023-05-14T23:05:13.414Z,17.80
2023-05-14T23:07:40.508Z,17.70
2023-05-14T23:10:07.737Z,17.70
2023-05-14T23:12:34.560Z,17.70
2023-05-14T23:15:01.495Z,17.80
2023-05-14T23:17:28.573Z,17.80
2023-05-14T23:19:55.730Z,17.80
2023-05-14T23:22:22.550Z,17.70
2023-05-14T23:24:49.375Z,17.70
2023-05-14T23:27:16.467Z,17.70
2023-05-14T23:29:43.222Z,17.70
2023-05-14T23:32:10.141Z,17.70
2023-05-14T23:34:36.973Z,17.70
2023-05-14T23:37:03.772Z,17.70
2023-05-14T23:39:30.612Z,17.70
2023-05-14T23:41:57.333Z,17.70
2023-05-14T23:44:24.107Z,17.70
2023-05-14T23:46:51.005Z,17.70
2023-05-14T23:49:17.879Z,17.70
2023-05-14T23:51:44.748Z,17.70
2023-05-14T23:54:11.750Z,17.80
2023-05-14T23:56:38.698Z,17.70
2023-05-14T23:59:05.630Z,17.80
